sensor_id;sensor_type;location;lat;lon;timestamp;pressure;altitude;pressure_sealevel;temperature;humidity
37860;BME280;23698;52.014;5.190;2023-08-07T05:02:25;101305.25;;;21.12;100.00
37860;BME280;23698;52.014;5.190;2023-08-07T05:05:11;101298.59;;;20.74;100.00
37860;BME280;23698;52.014;5.190;2023-08-07T05:07:59;101298.66;;;21.47;100.00
37860;BME280;23698;52.014;5.190;2023-08-07T05:10:45;101315.19;;;21.47;100.00
37860;BME280;23698;52.014;5.190;2023-08-07T05:13:31;101311.00;;;21.45;100.00
37860;BME280;23698;52.014;5.190;2023-08-07T06:17:45;101387.66;;;21.43;100.00
37860;BME280;23698;52.014;5.190;2023-08-07T06:20:36;101377.97;;;21.96;100.00
37860;BME280;23698;52.014;5.190;2023-08-07T06:23:23;101386.78;;;23.46;100.00
37860;BME280;23698;52.014;5.190;2023-08-07T06:26:10;101389.59;;;23.89;100.00
37860;BME280;23698;52.014;5.190;2023-08-07T06:28:56;101392.53;;;22.80;100.00
37860;BME280;23698;52.014;5.190;2023-08-07T06:31:42;101385.38;;;23.81;100.00
37860;BME280;23698;52.014;5.190;2023-08-07T06:34:30;101395.22;;;22.75;100.00
37860;BME280;23698;52.014;5.190;2023-08-07T06:38:38;101399.53;;;23.85;100.00
37860;BME280;23698;52.014;5.190;2023-08-07T06:41:27;101409.09;;;23.34;100.00
37860;BME280;23698;52.014;5.190;2023-08-07T06:44:49;101403.88;;;23.06;100.00
37860;BME280;23698;52.014;5.190;2023-08-07T06:47:38;101400.81;;;22.53;100.00
37860;BME280;23698;52.014;5.190;2023-08-07T06:50:41;101410.78;;;23.73;100.00
37860;BME280;23698;52.014;5.190;2023-08-07T06:53:27;101412.84;;;23.18;100.00
37860;BME280;23698;52.014;5.190;2023-08-07T06:56:18;101410.03;;;23.45;100.00
37860;BME280;23698;52.014;5.190;2023-08-07T06:59:06;101411.91;;;23.77;100.00
37860;BME280;23698;52.014;5.190;2023-08-07T07:01:52;101411.22;;;23.97;100.00
37860;BME280;23698;52.014;5.190;2023-08-07T07:04:40;101415.16;;;24.59;100.00
37860;BME280;23698;52.014;5.190;2023-08-07T07:07:29;101416.56;;;23.66;100.00
37860;BME280;23698;52.014;5.190;2023-08-07T07:10:15;101422.38;;;24.12;100.00
37860;BME280;23698;52.014;5.190;2023-08-07T07:13:05;101425.34;;;23.90;100.00
37860;BME280;23698;52.014;5.190;2023-08-07T07:15:53;101426.63;;;22.41;100.00
37860;BME280;23698;52.014;5.190;2023-08-07T07:18:39;101437.22;;;22.99;100.00
37860;BME280;23698;52.014;5.190;2023-08-07T07:21:28;101434.44;;;23.21;100.00
37860;BME280;23698;52.014;5.190;2023-08-07T07:24:16;101449.88;;;23.17;100.00
37860;BME280;23698;52.014;5.190;2023-08-07T07:27:03;101446.06;;;21.91;100.00
37860;BME280;23698;52.014;5.190;2023-08-07T07:29:50;101457.03;;;22.91;100.00
37860;BME280;23698;52.014;5.190;2023-08-07T07:32:36;101455.31;;;22.85;100.00
37860;BME280;23698;52.014;5.190;2023-08-07T07:35:24;101465.31;;;22.63;100.00
37860;BME280;23698;52.014;5.190;2023-08-07T07:38:12;101460.38;;;23.80;100.00
37860;BME280;23698;52.014;5.190;2023-08-07T07:41:00;101450.59;;;23.99;100.00
37860;BME280;23698;52.014;5.190;2023-08-07T07:43:46;101454.00;;;24.22;100.00
37860;BME280;23698;52.014;5.190;2023-08-07T07:46:35;101455.31;;;23.66;100.00
37860;BME280;23698;52.014;5.190;2023-08-07T07:49:24;101457.13;;;24.94;100.00
37860;BME280;23698;52.014;5.190;2023-08-07T07:52:15;101473.22;;;25.07;100.00
37860;BME280;23698;52.014;5.190;2023-08-07T07:55:02;101475.19;;;24.43;100.00
37860;BME280;23698;52.014;5.190;2023-08-07T07:57:51;101462.44;;;23.62;100.00
37860;BME280;23698;52.014;5.190;2023-08-07T08:00:38;101472.44;;;22.37;100.00
37860;BME280;23698;52.014;5.190;2023-08-07T08:03:24;101484.88;;;23.06;100.00
37860;BME280;23698;52.014;5.190;2023-08-07T08:06:13;101488.22;;;25.11;100.00
37860;BME280;23698;52.014;5.190;2023-08-07T08:09:00;101487.63;;;24.94;100.00
37860;BME280;23698;52.014;5.190;2023-08-07T08:11:49;101468.13;;;23.45;100.00
37860;BME280;23698;52.014;5.190;2023-08-07T08:14:36;101497.28;;;24.28;100.00
37860;BME280;23698;52.014;5.190;2023-08-07T08:17:40;101505.31;;;24.29;100.00
37860;BME280;23698;52.014;5.190;2023-08-07T08:20:26;101508.91;;;24.83;100.00
37860;BME280;23698;52.014;5.190;2023-08-07T08:23:12;101499.31;;;25.11;100.00
37860;BME280;23698;52.014;5.190;2023-08-07T08:25:58;101508.25;;;24.55;100.00
37860;BME280;23698;52.014;5.190;2023-08-07T08:28:44;101505.50;;;24.60;100.00
37860;BME280;23698;52.014;5.190;2023-08-07T08:31:34;101515.94;;;24.48;100.00
37860;BME280;23698;52.014;5.190;2023-08-07T08:34:25;101515.22;;;25.52;100.00
37860;BME280;23698;52.014;5.190;2023-08-07T08:37:14;101511.31;;;24.16;100.00
37860;BME280;23698;52.014;5.190;2023-08-07T08:40:02;101507.69;;;23.78;100.00
37860;BME280;23698;52.014;5.190;2023-08-07T08:42:52;101523.75;;;24.08;100.00
37860;BME280;23698;52.014;5.190;2023-08-07T08:45:42;101511.84;;;24.13;100.00
37860;BME280;23698;52.014;5.190;2023-08-07T08:48:31;101501.91;;;24.17;100.00
37860;BME280;23698;52.014;5.190;2023-08-07T08:51:25;101503.63;;;24.28;100.00
37860;BME280;23698;52.014;5.190;2023-08-07T08:54:15;101515.16;;;25.26;100.00
37860;BME280;23698;52.014;5.190;2023-08-07T08:57:05;101521.31;;;25.43;100.00
37860;BME280;23698;52.014;5.190;2023-08-07T08:59:53;101521.31;;;26.21;100.00
37860;BME280;23698;52.014;5.190;2023-08-07T09:02:39;101532.72;;;24.74;100.00
37860;BME280;23698;52.014;5.190;2023-08-07T09:05:26;101540.63;;;25.02;100.00
37860;BME280;23698;52.014;5.190;2023-08-07T09:08:13;101529.44;;;24.82;100.00
37860;BME280;23698;52.014;5.190;2023-08-07T09:11:00;101541.75;;;24.11;100.00
37860;BME280;23698;52.014;5.190;2023-08-07T09:13:47;101545.31;;;24.49;100.00
37860;BME280;23698;52.014;5.190;2023-08-07T09:16:33;101546.59;;;25.68;100.00
37860;BME280;23698;52.014;5.190;2023-08-07T09:19:19;101567.97;;;23.71;100.00
37860;BME280;23698;52.014;5.190;2023-08-07T09:22:07;101564.31;;;23.11;100.00
37860;BME280;23698;52.014;5.190;2023-08-07T09:24:53;101569.59;;;23.12;100.00
37860;BME280;23698;52.014;5.190;2023-08-07T09:27:41;101570.13;;;24.28;100.00
37860;BME280;23698;52.014;5.190;2023-08-07T09:30:28;101579.31;;;25.40;100.00
37860;BME280;23698;52.014;5.190;2023-08-07T09:33:14;101570.22;;;23.19;100.00
37860;BME280;23698;52.014;5.190;2023-08-07T09:36:01;101578.66;;;24.54;100.00
37860;BME280;23698;52.014;5.190;2023-08-07T09:38:51;101576.50;;;23.91;100.00
37860;BME280;23698;52.014;5.190;2023-08-07T09:41:38;101579.16;;;25.04;100.00
37860;BME280;23698;52.014;5.190;2023-08-07T09:44:24;101578.81;;;26.30;100.00
37860;BME280;23698;52.014;5.190;2023-08-07T09:47:13;101581.34;;;26.16;100.00
37860;BME280;23698;52.014;5.190;2023-08-07T09:49:59;101578.81;;;26.41;100.00
37860;BME280;23698;52.014;5.190;2023-08-07T09:52:46;101567.97;;;26.29;100.00
37860;BME280;23698;52.014;5.190;2023-08-07T09:55:35;101576.88;;;26.15;100.00
37860;BME280;23698;52.014;5.190;2023-08-07T09:58:25;101567.53;;;26.92;100.00
37860;BME280;23698;52.014;5.190;2023-08-07T10:01:11;101570.50;;;26.25;100.00
37860;BME280;23698;52.014;5.190;2023-08-07T10:04:03;101570.41;;;26.61;100.00
37860;BME280;23698;52.014;5.190;2023-08-07T10:06:50;101575.75;;;26.37;100.00
37860;BME280;23698;52.014;5.190;2023-08-07T10:09:36;101582.38;;;26.72;100.00
37860;BME280;23698;52.014;5.190;2023-08-07T10:12:24;101579.75;;;25.21;100.00
37860;BME280;23698;52.014;5.190;2023-08-07T10:18:09;101594.38;;;25.90;100.00
37860;BME280;23698;52.014;5.190;2023-08-07T10:20:55;101593.97;;;25.30;100.00
37860;BME280;23698;52.014;5.190;2023-08-07T10:23:43;101600.19;;;25.73;100.00
37860;BME280;23698;52.014;5.190;2023-08-07T10:26:30;101597.09;;;24.86;100.00
37860;BME280;23698;52.014;5.190;2023-08-07T10:29:19;101604.63;;;25.74;100.00
37860;BME280;23698;52.014;5.190;2023-08-07T10:32:32;101601.88;;;24.96;100.00
37860;BME280;23698;52.014;5.190;2023-08-07T10:35:24;101598.44;;;24.73;100.00
37860;BME280;23698;52.014;5.190;2023-08-07T10:38:12;101613.25;;;25.93;100.00
37860;BME280;23698;52.014;5.190;2023-08-07T10:40:59;101601.59;;;25.81;100.00
37860;BME280;23698;52.014;5.190;2023-08-07T10:43:55;101609.63;;;25.62;100.00
37860;BME280;23698;52.014;5.190;2023-08-07T10:46:47;101618.28;;;26.07;100.00
37860;BME280;23698;52.014;5.190;2023-08-07T10:49:35;101623.00;;;26.32;100.00
37860;BME280;23698;52.014;5.190;2023-08-07T10:52:21;101623.56;;;25.98;100.00
37860;BME280;23698;52.014;5.190;2023-08-07T10:55:14;101619.38;;;26.42;100.00
37860;BME280;23698;52.014;5.190;2023-08-07T10:58:04;101617.63;;;26.87;100.00
37860;BME280;23698;52.014;5.190;2023-08-07T11:00:51;101620.13;;;27.54;100.00
37860;BME280;23698;52.014;5.190;2023-08-07T11:03:39;101630.97;;;26.90;100.00
37860;BME280;23698;52.014;5.190;2023-08-07T11:06:27;101619.84;;;26.95;100.00
37860;BME280;23698;52.014;5.190;2023-08-07T11:09:18;101622.97;;;25.86;100.00
37860;BME280;23698;52.014;5.190;2023-08-07T11:12:05;101620.84;;;27.30;100.00
37860;BME280;23698;52.014;5.190;2023-08-07T11:14:51;101628.72;;;27.62;100.00
37860;BME280;23698;52.014;5.190;2023-08-07T11:17:41;101620.81;;;28.19;100.00
37860;BME280;23698;52.014;5.190;2023-08-07T11:20:28;101626.97;;;28.46;100.00
37860;BME280;23698;52.014;5.190;2023-08-07T11:23:15;101627.72;;;27.93;100.00
37860;BME280;23698;52.014;5.190;2023-08-07T11:26:01;101625.78;;;26.37;100.00
37860;BME280;23698;52.014;5.190;2023-08-07T11:28:48;101627.41;;;27.49;100.00
37860;BME280;23698;52.014;5.190;2023-08-07T11:31:34;101622.06;;;27.58;100.00
37860;BME280;23698;52.014;5.190;2023-08-07T11:34:20;101613.78;;;26.57;100.00
37860;BME280;23698;52.014;5.190;2023-08-07T11:37:08;101620.81;;;28.19;100.00
37860;BME280;23698;52.014;5.190;2023-08-07T11:40:01;101619.13;;;28.18;100.00
37860;BME280;23698;52.014;5.190;2023-08-07T11:42:48;101625.13;;;27.02;100.00
37860;BME280;23698;52.014;5.190;2023-08-07T11:45:34;101614.69;;;26.06;100.00
37860;BME280;23698;52.014;5.190;2023-08-07T11:48:23;101629.19;;;27.25;100.00
37860;BME280;23698;52.014;5.190;2023-08-07T11:51:09;101636.31;;;26.55;100.00
37860;BME280;23698;52.014;5.190;2023-08-07T11:53:57;101630.69;;;27.57;98.07
37860;BME280;23698;52.014;5.190;2023-08-07T11:56:45;101626.75;;;27.03;96.15
37860;BME280;23698;52.014;5.190;2023-08-07T11:59:31;101623.28;;;26.46;100.00
37860;BME280;23698;52.014;5.190;2023-08-07T12:02:22;101628.78;;;26.77;93.77
37860;BME280;23698;52.014;5.190;2023-08-07T12:05:08;101631.34;;;26.27;96.78
37860;BME280;23698;52.014;5.190;2023-08-07T12:07:56;101623.78;;;26.73;89.22
37860;BME280;23698;52.014;5.190;2023-08-07T12:10:44;101630.44;;;27.53;79.82
37860;BME280;23698;52.014;5.190;2023-08-07T12:13:31;101637.22;;;27.37;86.37
37860;BME280;23698;52.014;5.190;2023-08-07T12:16:19;101630.53;;;28.51;79.41
37860;BME280;23698;52.014;5.190;2023-08-07T12:19:06;101630.88;;;27.21;93.32
37860;BME280;23698;52.014;5.190;2023-08-07T12:21:54;101622.91;;;28.33;85.85
37860;BME280;23698;52.014;5.190;2023-08-07T12:24:41;101636.59;;;26.64;85.60
37860;BME280;23698;52.014;5.190;2023-08-07T12:27:30;101626.16;;;28.45;76.95
37860;BME280;23698;52.014;5.190;2023-08-07T12:30:16;101627.22;;;27.80;77.22
37860;BME280;23698;52.014;5.190;2023-08-07T12:33:03;101633.97;;;27.69;77.69
37860;BME280;23698;52.014;5.190;2023-08-07T12:35:51;101632.78;;;27.80;71.41
37860;BME280;23698;52.014;5.190;2023-08-07T12:38:38;101638.25;;;26.75;80.51
37860;BME280;23698;52.014;5.190;2023-08-07T12:41:24;101628.22;;;28.00;76.54
37860;BME280;23698;52.014;5.190;2023-08-07T12:44:15;101634.91;;;27.99;89.65
37860;BME280;23698;52.014;5.190;2023-08-07T12:47:03;101637.00;;;27.28;84.59
37860;BME280;23698;52.014;5.190;2023-08-07T12:49:51;101629.84;;;28.01;77.92
37860;BME280;23698;52.014;5.190;2023-08-07T12:52:37;101631.63;;;27.86;72.65
37860;BME280;23698;52.014;5.190;2023-08-07T13:02:02;101624.84;;;28.32;70.52
37860;BME280;23698;52.014;5.190;2023-08-07T13:04:48;101629.97;;;28.54;77.78
37860;BME280;23698;52.014;5.190;2023-08-07T13:07:35;101626.50;;;28.04;66.69
37860;BME280;23698;52.014;5.190;2023-08-07T13:10:23;101640.91;;;27.77;72.91
37860;BME280;23698;52.014;5.190;2023-08-07T13:13:09;101638.56;;;27.94;78.77
37860;BME280;23698;52.014;5.190;2023-08-07T13:15:55;101642.41;;;28.91;72.45
37860;BME280;23698;52.014;5.190;2023-08-07T13:18:43;101636.28;;;28.31;72.24
37860;BME280;23698;52.014;5.190;2023-08-07T13:21:31;101633.50;;;28.89;65.96
37860;BME280;23698;52.014;5.190;2023-08-07T13:24:19;101641.00;;;29.18;60.78
37860;BME280;23698;52.014;5.190;2023-08-07T13:30:28;101639.31;;;29.98;57.01
37860;BME280;23698;52.014;5.190;2023-08-07T13:33:36;101647.97;;;28.67;53.28
37860;BME280;23698;52.014;5.190;2023-08-07T13:36:26;101643.09;;;29.02;54.33
37860;BME280;23698;52.014;5.190;2023-08-07T13:39:13;101643.97;;;28.15;60.56
37860;BME280;23698;52.014;5.190;2023-08-07T13:41:59;101645.50;;;28.31;63.38
37860;BME280;23698;52.014;5.190;2023-08-07T13:44:46;101646.94;;;27.89;68.58
37860;BME280;23698;52.014;5.190;2023-08-07T13:47:32;101647.84;;;28.19;77.68
37860;BME280;23698;52.014;5.190;2023-08-07T13:50:18;101644.28;;;28.42;70.14
37860;BME280;23698;52.014;5.190;2023-08-07T13:53:06;101652.50;;;29.35;68.28
37860;BME280;23698;52.014;5.190;2023-08-07T13:56:00;101643.94;;;29.27;67.72
37860;BME280;23698;52.014;5.190;2023-08-07T13:58:46;101647.94;;;29.83;69.35
37860;BME280;23698;52.014;5.190;2023-08-07T14:01:32;101645.56;;;30.09;65.33
37860;BME280;23698;52.014;5.190;2023-08-07T14:04:20;101647.38;;;29.24;70.10
37860;BME280;23698;52.014;5.190;2023-08-07T14:07:06;101652.09;;;29.23;66.08
37860;BME280;23698;52.014;5.190;2023-08-07T14:09:54;101659.91;;;29.45;59.91
37860;BME280;23698;52.014;5.190;2023-08-07T14:12:40;101652.16;;;28.35;64.50
37860;BME280;23698;52.014;5.190;2023-08-07T14:15:26;101663.97;;;27.82;64.20
37860;BME280;23698;52.014;5.190;2023-08-07T14:18:13;101651.91;;;26.72;69.04
37860;BME280;23698;52.014;5.190;2023-08-07T14:21:00;101668.06;;;27.50;71.73
37860;BME280;23698;52.014;5.190;2023-08-07T14:23:47;101666.75;;;27.82;72.58
37860;BME280;23698;52.014;5.190;2023-08-07T14:26:36;101666.47;;;28.58;71.24
37860;BME280;23698;52.014;5.190;2023-08-07T14:29:31;101654.81;;;28.80;67.76
37860;BME280;23698;52.014;5.190;2023-08-07T14:32:17;101669.78;;;28.89;68.69
37860;BME280;23698;52.014;5.190;2023-08-07T14:35:04;101673.06;;;28.03;73.03
37860;BME280;23698;52.014;5.190;2023-08-07T14:37:51;101665.22;;;28.40;70.67
37860;BME280;23698;52.014;5.190;2023-08-07T14:40:37;101673.22;;;28.17;76.89
37860;BME280;23698;52.014;5.190;2023-08-07T14:43:28;101655.00;;;30.13;70.63
37860;BME280;23698;52.014;5.190;2023-08-07T14:46:15;101662.47;;;28.00;84.98
37860;BME280;23698;52.014;5.190;2023-08-07T14:49:03;101663.22;;;27.72;85.73
37860;BME280;23698;52.014;5.190;2023-08-07T14:51:49;101677.38;;;28.54;82.84
37860;BME280;23698;52.014;5.190;2023-08-07T14:54:35;101667.28;;;27.35;100.00
37860;BME280;23698;52.014;5.190;2023-08-07T14:57:21;101665.50;;;26.73;100.00
37860;BME280;23698;52.014;5.190;2023-08-07T16:13:33;101677.56;;;27.99;100.00
37860;BME280;23698;52.014;5.190;2023-08-07T18:49:43;101589.06;;;24.90;100.00
37860;BME280;23698;52.014;5.190;2023-08-07T18:52:29;101593.19;;;23.74;100.00
37860;BME280;23698;52.014;5.190;2023-08-07T18:55:15;101586.00;;;24.38;100.00
37860;BME280;23698;52.014;5.190;2023-08-07T18:58:02;101583.50;;;24.04;100.00
37860;BME280;23698;52.014;5.190;2023-08-07T19:51:05;101569.31;;;24.76;100.00
37860;BME280;23698;52.014;5.190;2023-08-07T19:54:07;101569.66;;;24.84;100.00
37860;BME280;23698;52.014;5.190;2023-08-07T19:56:53;101575.16;;;24.79;100.00
37860;BME280;23698;52.014;5.190;2023-08-07T19:59:39;101572.19;;;24.91;100.00
37860;BME280;23698;52.014;5.190;2023-08-07T20:33:10;101529.06;;;23.50;100.00
37860;BME280;23698;52.014;5.190;2023-08-07T20:35:56;101528.59;;;23.31;100.00
37860;BME280;23698;52.014;5.190;2023-08-07T20:38:42;101523.13;;;23.69;100.00
37860;BME280;23698;52.014;5.190;2023-08-07T20:41:29;101524.41;;;23.56;100.00
37860;BME280;23698;52.014;5.190;2023-08-07T20:44:15;101515.31;;;23.93;100.00
37860;BME280;23698;52.014;5.190;2023-08-07T20:47:02;101512.81;;;24.29;100.00
37860;BME280;23698;52.014;5.190;2023-08-07T20:49:51;101507.00;;;23.93;100.00
37860;BME280;23698;52.014;5.190;2023-08-07T20:52:38;101510.00;;;23.86;100.00
37860;BME280;23698;52.014;5.190;2023-08-07T20:55:24;101503.72;;;23.96;100.00
37860;BME280;23698;52.014;5.190;2023-08-07T20:58:10;101500.38;;;23.34;100.00
37860;BME280;23698;52.014;5.190;2023-08-07T21:00:56;101485.53;;;23.78;100.00
37860;BME280;23698;52.014;5.190;2023-08-07T21:03:42;101483.06;;;23.77;100.00
37860;BME280;23698;52.014;5.190;2023-08-07T21:06:30;101476.22;;;24.32;100.00
37860;BME280;23698;52.014;5.190;2023-08-07T21:09:16;101470.75;;;23.94;100.00
37860;BME280;23698;52.014;5.190;2023-08-07T21:12:03;101456.81;;;24.90;100.00
37860;BME280;23698;52.014;5.190;2023-08-07T21:14:49;101455.91;;;24.59;100.00
37860;BME280;23698;52.014;5.190;2023-08-07T21:17:35;101457.84;;;24.10;100.00
37860;BME280;23698;52.014;5.190;2023-08-07T21:20:21;101459.13;;;24.45;100.00
37860;BME280;23698;52.014;5.190;2023-08-07T21:23:09;101447.03;;;23.71;100.00
37860;BME280;23698;52.014;5.190;2023-08-07T21:25:57;101459.47;;;23.69;100.00
37860;BME280;23698;52.014;5.190;2023-08-07T21:28:43;101456.34;;;24.45;100.00
37860;BME280;23698;52.014;5.190;2023-08-07T21:31:30;101451.25;;;24.22;100.00
37860;BME280;23698;52.014;5.190;2023-08-07T21:34:16;101454.59;;;24.87;100.00
37860;BME280;23698;52.014;5.190;2023-08-07T21:37:02;101448.69;;;24.63;100.00
37860;BME280;23698;52.014;5.190;2023-08-07T21:39:50;101443.22;;;24.88;100.00
37860;BME280;23698;52.014;5.190;2023-08-07T21:42:38;101448.06;;;24.50;100.00
37860;BME280;23698;52.014;5.190;2023-08-07T21:45:24;101443.53;;;24.24;100.00
37860;BME280;23698;52.014;5.190;2023-08-07T21:48:10;101446.00;;;23.45;100.00
37860;BME280;23698;52.014;5.190;2023-08-07T21:50:57;101440.00;;;23.59;100.00
37860;BME280;23698;52.014;5.190;2023-08-07T21:53:43;101438.09;;;23.59;100.00
37860;BME280;23698;52.014;5.190;2023-08-07T21:56:31;101444.59;;;23.43;100.00
37860;BME280;23698;52.014;5.190;2023-08-07T21:59:17;101438.31;;;23.52;100.00
37860;BME280;23698;52.014;5.190;2023-08-07T22:02:03;101436.84;;;22.41;100.00
37860;BME280;23698;52.014;5.190;2023-08-07T22:04:49;101439.19;;;22.76;100.00
37860;BME280;23698;52.014;5.190;2023-08-07T22:07:38;101433.53;;;23.80;100.00
37860;BME280;23698;52.014;5.190;2023-08-07T22:10:24;101436.56;;;22.87;100.00
37860;BME280;23698;52.014;5.190;2023-08-07T22:13:12;101431.34;;;22.90;100.00
